Adams, Kentucky
Current Conditions -  °F | °C
As of 5:35 PM on Tuesday 21 Oct 2014 (Local Time) from KSJS Reporting Station
Overcast Overcast  
Wind Chill: 52°   Ceiling: 5000
Heat Index: 52°   Visibility: 10mi
Dew Point: 42°   Wind: 3mph
Humidity: 67%   Direction: 310°NW
Pressure: 30.05"   Gusts: NA
Location:  38.05°N, 82.71°W
Report Text: KSJS 212135Z AUTO 31003KT 10SM OVC050 11/05 A3005 RMK AO2 T01120053
Loading
Personal Weather Stations






























Interactive Weather Map New forecast layout! Learn more

10-Day Weather Forecast

Advertisements
Track Severe Weather on mobile